Portada
METAR-TAF:

METAR-TAF

Aeroports :

Baker Municipal Airport

Baker, Montana, Estats Units d'Amèrica

latitud: 46-20-52N, longitud: 104-15-27W, altitud: 905 m

Observació

L'informe es va fer fa 57 minuts, a les 14:51 UTC
Vent 11 kt del Oest/Sud-Oest
Temperatura -4°C
Humitat 86%
Pressió 1017 hPa
Visibilitat: 16.1 km
Cel clar

METAR: KBHK 281451Z AUTO 25011KT 10SM CLR M04/M06 A3002 RMK AO2 SLP195 T10391056 53003

Hora: 08:48 (15:48 UTC)


TAF: manca

Observacions i pronòstics meteorològics de més de 4000 aeroports (METAR i TAF).

Les estacions disponibles són els punts grocs i vermells al mapa.

Posi el ratolí al punt desitjat per veure el nom de l'estació.

Feu clic per veure les observacions i els pronòstics meteorològics.

Per canviar el mapa: feu clic els botons verds amb una creu de color negre per apropar; al botó verd amb un guió per allunyar la imatge; o en les fletxes verdes per a mapes adjacents.


METAR-TAF: